Time;durP1;ratioP1;P1;durP2;ratioP2;P2;SDS_P1;SDS_P2;PMS_P1;PMS_P2;Temp;Humidity;BMP_temperature;BMP_pressure;BME280_temperature;BME280_humidity;BME280_pressure;Samples;Min_cycle;Max_cycle;Signal;HPM_P1;HPM_P2
2022/08/24 00:00:59;;;;;;;9.68;5.00;;;18.90;99.90;;;;;;5072313;28;20563;-80
2022/08/24 00:03:25;;;;;;;25.02;5.30;;;18.80;99.90;;;;;;5067139;28;20044;-80
2022/08/24 00:05:55;;;;;;;10.13;5.35;;;18.80;99.90;;;;;;5056296;28;20044;-80
2022/08/24 00:08:21;;;;;;;7.28;3.90;;;18.70;99.90;;;;;;5057273;28;20046;-81
2022/08/24 00:10:46;;;;;;;4.55;3.00;;;18.70;99.90;;;;;;5041109;28;20127;-80
2022/08/24 00:13:13;;;;;;;8.75;4.80;;;18.70;99.90;;;;;;5056187;28;20414;-80
2022/08/24 00:15:39;;;;;;;9.85;4.60;;;18.60;99.90;;;;;;5040288;28;20482;-80
2022/08/24 00:18:05;;;;;;;11.40;6.47;;;18.60;99.90;;;;;;5073725;28;20078;-79
2022/08/24 00:20:32;;;;;;;12.77;6.90;;;18.50;99.90;;;;;;5073695;28;20124;-79
2022/08/24 00:22:58;;;;;;;10.82;5.80;;;18.50;99.90;;;;;;5072974;28;20083;-79
2022/08/24 00:25:24;;;;;;;7.38;4.32;;;18.50;99.90;;;;;;5072236;28;20076;-79
2022/08/24 00:27:49;;;;;;;7.72;4.22;;;18.50;99.90;;;;;;5068391;28;20036;-80
2022/08/24 00:30:18;;;;;;;9.55;6.05;;;18.40;99.90;;;;;;5034959;28;20044;-79
2022/08/24 00:32:45;;;;;;;11.77;5.95;;;18.40;99.90;;;;;;5053427;28;20037;-79
2022/08/24 00:35:13;;;;;;;7.60;4.88;;;18.30;99.90;;;;;;5050357;28;20142;-79
2022/08/24 00:37:39;;;;;;;9.32;5.15;;;18.30;99.90;;;;;;5055707;28;20048;-79
2022/08/24 00:40:13;;;;;;;7.93;4.38;;;18.30;99.90;;;;;;5056551;28;20395;-79
2022/08/24 00:42:39;;;;;;;7.15;5.20;;;18.30;99.90;;;;;;5073038;28;20114;-79
2022/08/24 00:45:08;;;;;;;8.07;4.55;;;18.30;99.90;;;;;;5040224;28;20051;-78
2022/08/24 00:47:50;;;;;;;8.32;4.50;;;18.20;99.90;;;;;;5072592;28;20048;-78
2022/08/24 00:50:28;;;;;;;6.35;4.07;;;18.20;99.90;;;;;;5056457;28;20087;-80
2022/08/24 00:53:01;;;;;;;6.72;4.22;;;18.20;99.90;;;;;;5073169;28;20081;-80
2022/08/24 00:55:41;;;;;;;7.72;4.72;;;18.10;99.90;;;;;;5055510;28;20489;-80
2022/08/24 00:58:19;;;;;;;11.00;5.13;;;18.10;99.90;;;;;;5072958;28;20040;-80
2022/08/24 01:01:01;;;;;;;7.05;4.25;;;18.10;99.90;;;;;;5056345;28;20105;-80
2022/08/24 01:03:28;;;;;;;6.97;4.20;;;18.10;99.90;;;;;;5052884;28;20041;-80
2022/08/24 01:05:55;;;;;;;9.55;5.43;;;18.10;99.90;;;;;;5057745;28;20372;-80
2022/08/24 01:08:22;;;;;;;10.88;5.70;;;18.10;99.90;;;;;;5072353;28;20075;-80
2022/08/24 01:11:11;;;;;;;8.15;5.20;;;18.10;99.90;;;;;;5056430;28;20548;-80
2022/08/24 01:13:38;;;;;;;7.20;4.43;;;18.10;99.90;;;;;;5073123;28;20043;-80
2022/08/24 01:16:06;;;;;;;10.40;6.10;;;18.00;99.90;;;;;;5071713;28;20036;-80
2022/08/24 01:18:49;;;;;;;7.25;4.88;;;18.00;99.90;;;;;;5072237;28;20040;-80
2022/08/24 01:21:33;;;;;;;8.68;4.68;;;18.00;99.90;;;;;;5055749;28;20105;-80
2022/08/24 01:24:05;;;;;;;6.90;3.88;;;18.00;99.90;;;;;;5055683;28;20040;-80
2022/08/24 01:26:49;;;;;;;5.78;3.33;;;18.00;99.90;;;;;;5053200;28;20082;-79
2022/08/24 01:29:19;;;;;;;6.03;3.45;;;17.90;99.90;;;;;;5055558;28;20367;-79
2022/08/24 01:31:45;;;;;;;8.43;4.90;;;17.90;99.90;;;;;;5072012;28;20123;-79
2022/08/24 01:34:11;;;;;;;9.43;5.18;;;17.90;99.90;;;;;;5072101;28;20124;-79
2022/08/24 01:36:54;;;;;;;7.60;4.65;;;17.80;99.90;;;;;;5054983;28;20052;-79
2022/08/24 01:39:28;;;;;;;9.32;5.70;;;17.80;99.90;;;;;;5057118;28;20506;-79
2022/08/24 01:41:53;;;;;;;11.25;6.47;;;17.80;99.90;;;;;;5072386;28;20067;-80
2022/08/24 01:44:21;;;;;;;12.88;6.72;;;17.80;99.90;;;;;;5038718;28;20041;-80
2022/08/24 01:46:48;;;;;;;10.13;4.82;;;17.80;99.90;;;;;;5055052;28;20036;-80
2022/08/24 01:49:15;;;;;;;8.02;4.93;;;17.80;99.90;;;;;;5070070;28;20131;-80
2022/08/24 01:51:42;;;;;;;6.25;3.47;;;17.80;99.90;;;;;;5055483;28;20123;-80
2022/08/24 01:54:08;;;;;;;5.05;3.60;;;17.70;99.90;;;;;;5071969;28;20043;-80
2022/08/24 01:56:35;;;;;;;7.15;4.18;;;17.70;99.90;;;;;;5071974;28;20094;-80
2022/08/24 01:59:02;;;;;;;6.07;4.03;;;17.70;99.90;;;;;;5070331;28;20044;-79
2022/08/24 02:01:30;;;;;;;7.75;4.90;;;17.70;99.90;;;;;;5075008;28;20404;-79
2022/08/24 02:03:59;;;;;;;7.95;4.88;;;17.60;99.90;;;;;;5071953;28;20075;-79
2022/08/24 02:06:25;;;;;;;13.30;6.82;;;17.60;99.90;;;;;;5054981;28;20037;-79
2022/08/24 02:08:51;;;;;;;7.47;4.60;;;17.60;99.90;;;;;;5071053;28;20048;-79
2022/08/24 02:11:17;;;;;;;9.95;4.65;;;17.60;99.90;;;;;;5067999;28;20036;-79
2022/08/24 02:13:42;;;;;;;6.47;3.90;;;17.60;99.90;;;;;;5075757;28;20512;-80
2022/08/24 02:16:08;;;;;;;8.20;4.93;;;17.60;99.90;;;;;;5081980;28;20036;-80
2022/08/24 02:18:39;;;;;;;8.10;4.45;;;17.60;99.90;;;;;;5063601;28;20059;-80
2022/08/24 02:21:07;;;;;;;7.05;4.05;;;17.60;99.90;;;;;;5051313;28;20446;-80
2022/08/24 02:23:34;;;;;;;10.18;5.32;;;17.60;99.90;;;;;;5067968;28;20075;-81
2022/08/24 02:25:59;;;;;;;6.22;3.55;;;17.60;99.90;;;;;;5075754;28;20387;-80
2022/08/24 02:28:25;;;;;;;6.10;3.47;;;17.60;99.90;;;;;;5042658;28;20044;-79
2022/08/24 02:30:52;;;;;;;5.55;3.38;;;17.60;99.90;;;;;;5074727;28;20049;-80
2022/08/24 02:33:18;;;;;;;8.13;3.88;;;17.50;99.90;;;;;;5042979;28;20036;-81
2022/08/24 02:35:43;;;;;;;6.88;4.13;;;17.50;99.90;;;;;;5074766;28;20121;-80
2022/08/24 02:38:09;;;;;;;6.53;4.20;;;17.50;99.90;;;;;;5073105;28;20118;-80
2022/08/24 02:40:36;;;;;;;6.78;4.07;;;17.50;99.90;;;;;;5074749;28;20055;-80
2022/08/24 02:43:02;;;;;;;6.57;3.83;;;17.50;99.90;;;;;;5075339;28;20044;-80
2022/08/24 02:45:28;;;;;;;6.20;3.90;;;17.40;99.90;;;;;;5075613;28;20044;-80
2022/08/24 02:47:54;;;;;;;5.60;3.55;;;17.40;99.90;;;;;;5042273;28;20037;-79
2022/08/24 02:50:19;;;;;;;6.15;3.63;;;17.40;99.90;;;;;;5074827;28;20079;-79
2022/08/24 02:52:45;;;;;;;6.93;3.90;;;17.30;99.90;;;;;;5058912;28;20482;-79
2022/08/24 02:55:15;;;;;;;5.80;3.53;;;17.30;99.90;;;;;;5058818;28;20099;-79
2022/08/24 02:57:41;;;;;;;6.50;3.75;;;17.30;99.90;;;;;;5075057;28;20097;-79
2022/08/24 03:00:12;;;;;;;6.43;4.20;;;17.30;99.90;;;;;;5075416;28;20048;-80
2022/08/24 03:02:38;;;;;;;7.90;4.95;;;17.40;99.90;;;;;;5074606;28;20041;-80
2022/08/24 03:05:05;;;;;;;9.40;5.45;;;17.40;99.90;;;;;;5059212;28;20414;-80
2022/08/24 03:07:31;;;;;;;7.15;4.20;;;17.40;99.90;;;;;;5074679;28;20059;-80
2022/08/24 03:09:56;;;;;;;9.55;4.43;;;17.40;99.90;;;;;;5075220;28;20463;-80
2022/08/24 03:12:22;;;;;;;7.88;4.72;;;17.30;99.90;;;;;;5073582;28;20044;-80
2022/08/24 03:14:48;;;;;;;6.70;4.07;;;17.30;99.90;;;;;;5075121;28;20095;-80
2022/08/24 03:17:13;;;;;;;6.65;4.40;;;17.20;99.90;;;;;;5042064;28;20040;-80
2022/08/24 03:19:39;;;;;;;7.13;4.10;;;17.20;99.90;;;;;;5058268;28;20048;-80
2022/08/24 03:22:05;;;;;;;7.03;4.30;;;17.20;99.90;;;;;;5056569;28;20070;-79
2022/08/24 03:24:31;;;;;;;6.95;4.30;;;17.20;99.90;;;;;;5057832;28;20033;-79
2022/08/24 03:26:57;;;;;;;6.13;3.65;;;17.20;99.90;;;;;;5053373;28;20103;-78
2022/08/24 03:29:22;;;;;;;7.95;3.95;;;17.20;99.90;;;;;;5072121;28;20044;-78
2022/08/24 03:31:48;;;;;;;9.25;5.47;;;17.20;99.90;;;;;;5058086;28;20043;-79
2022/08/24 03:34:14;;;;;;;9.18;5.93;;;17.20;99.90;;;;;;5057431;28;20501;-79
2022/08/24 03:36:45;;;;;;;10.07;6.07;;;17.20;99.90;;;;;;5074129;28;20501;-79
2022/08/24 03:39:11;;;;;;;8.07;5.38;;;17.20;99.90;;;;;;5057862;28;20489;-79
2022/08/24 03:41:37;;;;;;;9.65;4.85;;;17.20;99.90;;;;;;5060657;28;20047;-79
2022/08/24 03:44:03;;;;;;;7.68;4.57;;;17.20;99.90;;;;;;5063260;28;20036;-79
2022/08/24 03:46:34;;;;;;;7.32;3.88;;;17.20;99.90;;;;;;5074677;28;20131;-79
2022/08/24 03:49:00;;;;;;;8.63;5.10;;;17.20;99.90;;;;;;5071789;28;20038;-78
2022/08/24 03:51:27;;;;;;;7.57;4.75;;;17.10;99.90;;;;;;5057709;22;20122;-79
2022/08/24 03:53:54;;;;;;;11.38;6.38;;;17.20;99.90;;;;;;5035953;28;20045;-81
2022/08/24 03:56:20;;;;;;;9.07;5.85;;;17.20;99.90;;;;;;5048378;28;20098;-81
2022/08/24 03:58:46;;;;;;;9.80;5.60;;;17.20;99.90;;;;;;5021284;28;20037;-81
2022/08/24 04:01:13;;;;;;;6.80;4.40;;;17.30;99.90;;;;;;5054818;28;20052;-81
2022/08/24 04:03:42;;;;;;;8.18;4.90;;;17.30;99.90;;;;;;5057251;28;20423;-81
2022/08/24 04:06:08;;;;;;;9.20;6.05;;;17.20;99.90;;;;;;5053162;28;20754;-81
2022/08/24 04:08:35;;;;;;;8.63;5.05;;;17.20;99.90;;;;;;5040702;28;20044;-81
2022/08/24 04:11:02;;;;;;;8.27;5.82;;;17.20;99.90;;;;;;5049785;28;20069;-81
2022/08/24 04:13:31;;;;;;;12.75;7.38;;;17.20;99.90;;;;;;5053465;28;20556;-81
2022/08/24 04:16:02;;;;;;;8.73;4.75;;;17.20;99.90;;;;;;5035347;28;20091;-81
2022/08/24 04:18:28;;;;;;;10.60;5.75;;;17.20;99.90;;;;;;5055739;28;20044;-81
2022/08/24 04:20:56;;;;;;;7.45;5.03;;;17.20;99.90;;;;;;5057299;28;20070;-84
2022/08/24 04:23:22;;;;;;;6.38;4.07;;;17.20;99.90;;;;;;5057484;28;20387;-84
2022/08/24 04:25:47;;;;;;;7.05;4.10;;;17.10;99.90;;;;;;5065597;28;20040;-83
2022/08/24 04:28:17;;;;;;;8.70;4.15;;;17.10;99.90;;;;;;5049370;28;20144;-81
2022/08/24 04:30:44;;;;;;;6.68;4.30;;;17.10;99.90;;;;;;5073348;28;20119;-81
2022/08/24 04:33:12;;;;;;;10.63;6.07;;;17.00;99.90;;;;;;5073475;28;20466;-81
2022/08/24 04:35:39;;;;;;;11.80;5.78;;;17.00;99.90;;;;;;5070752;28;20068;-81
2022/08/24 04:38:06;;;;;;;9.70;5.95;;;17.00;99.90;;;;;;5049305;28;20045;-81
2022/08/24 04:40:32;;;;;;;10.65;5.93;;;16.90;99.90;;;;;;5033070;28;20041;-81
2022/08/24 04:42:57;;;;;;;7.88;4.70;;;16.90;99.90;;;;;;5033365;28;20038;-81
2022/08/24 04:45:25;;;;;;;8.98;5.65;;;16.90;99.90;;;;;;5000526;28;20121;-83
2022/08/24 04:47:51;;;;;;;9.35;5.35;;;16.90;99.90;;;;;;5048669;28;20041;-83
2022/08/24 04:50:17;;;;;;;7.38;4.97;;;16.90;99.90;;;;;;5056373;28;20056;-83
2022/08/24 04:52:42;;;;;;;8.32;5.82;;;16.90;99.90;;;;;;5056174;28;20059;-83
2022/08/24 04:55:08;;;;;;;8.88;5.18;;;16.90;99.90;;;;;;5036988;28;20106;-83
2022/08/24 04:57:34;;;;;;;8.07;4.63;;;16.90;99.90;;;;;;5035548;28;20063;-83
2022/08/24 05:00:01;;;;;;;7.30;4.15;;;16.90;99.90;;;;;;5051561;28;20456;-82
2022/08/24 05:02:27;;;;;;;7.82;4.95;;;17.00;99.90;;;;;;5052536;28;20102;-81
2022/08/24 05:04:55;;;;;;;9.93;5.65;;;17.00;99.90;;;;;;5037308;28;20044;-81
2022/08/24 05:07:21;;;;;;;9.55;5.55;;;17.00;99.90;;;;;;5050826;28;20068;-81
2022/08/24 05:09:48;;;;;;;9.10;6.22;;;17.10;99.90;;;;;;5018880;28;20087;-81
2022/08/24 05:12:14;;;;;;;8.20;5.07;;;17.10;99.90;;;;;;5052770;28;20124;-81
2022/08/24 05:14:40;;;;;;;9.05;5.32;;;17.20;99.90;;;;;;5036016;28;20040;-81
2022/08/24 05:17:06;;;;;;;11.38;5.35;;;17.20;99.90;;;;;;5036330;28;20437;-83
2022/08/24 05:19:31;;;;;;;8.88;5.50;;;17.20;99.90;;;;;;5046541;28;20372;-83
2022/08/24 05:21:57;;;;;;;8.48;5.00;;;17.20;99.90;;;;;;5036404;28;20049;-83
2022/08/24 05:24:23;;;;;;;10.57;5.97;;;17.30;99.90;;;;;;5052423;28;20045;-83
2022/08/24 05:26:50;;;;;;;9.15;5.28;;;17.30;99.90;;;;;;5035007;28;20047;-83
2022/08/24 05:29:16;;;;;;;9.75;5.88;;;17.40;99.90;;;;;;5033978;28;20525;-84
2022/08/24 05:31:44;;;;;;;9.57;5.32;;;17.50;99.90;;;;;;5052602;28;20045;-83
2022/08/24 05:34:10;;;;;;;7.38;5.20;;;17.60;99.90;;;;;;5035811;28;20445;-83
2022/08/24 05:36:38;;;;;;;9.43;4.82;;;17.70;99.90;;;;;;5052052;28;20041;-83
2022/08/24 05:39:08;;;;;;;11.68;6.57;;;17.80;99.90;;;;;;5034050;28;20107;-83
2022/08/24 05:41:34;;;;;;;9.65;5.93;;;17.90;99.90;;;;;;5053921;28;20036;-83
2022/08/24 05:44:01;;;;;;;10.23;5.88;;;18.00;99.90;;;;;;5072440;28;20044;-83
2022/08/24 05:46:27;;;;;;;11.02;6.70;;;18.10;99.90;;;;;;5039216;28;20037;-83
2022/08/24 05:48:53;;;;;;;12.77;7.53;;;18.30;99.90;;;;;;5055334;28;20041;-83
2022/08/24 05:51:20;;;;;;;14.98;8.55;;;18.30;99.90;;;;;;5039088;28;20124;-83
2022/08/24 05:53:46;;;;;;;11.25;6.75;;;18.50;99.90;;;;;;5056700;28;20099;-83
2022/08/24 05:56:13;;;;;;;10.30;5.93;;;18.60;99.90;;;;;;5056339;28;20072;-83
2022/08/24 05:58:40;;;;;;;8.65;5.70;;;18.70;99.90;;;;;;5061283;28;20039;-84
2022/08/24 06:01:09;;;;;;;11.40;6.05;;;18.80;99.90;;;;;;5063137;28;20467;-84
2022/08/24 06:03:35;;;;;;;12.98;7.53;;;19.00;99.90;;;;;;5071044;28;20470;-83
2022/08/24 06:06:02;;;;;;;13.98;7.70;;;19.10;99.90;;;;;;5059655;28;20048;-83
2022/08/24 06:08:29;;;;;;;10.15;6.32;;;19.30;99.90;;;;;;5076393;28;20098;-83
2022/08/24 06:10:56;;;;;;;11.90;7.00;;;19.40;99.90;;;;;;5069528;28;20467;-83
2022/08/24 06:13:21;;;;;;;12.50;6.85;;;19.50;99.90;;;;;;5039831;28;20051;-83
2022/08/24 06:15:47;;;;;;;9.25;6.03;;;19.70;99.90;;;;;;5044681;28;20474;-83
2022/08/24 06:18:13;;;;;;;13.57;7.95;;;19.80;99.90;;;;;;5037110;28;20073;-84
2022/08/24 06:20:41;;;;;;;14.57;9.88;;;20.20;99.90;;;;;;5055888;28;20041;-83
2022/08/24 06:23:08;;;;;;;15.32;9.32;;;20.40;99.90;;;;;;5043060;28;20033;-83
2022/08/24 06:28:23;;;;;;;10.25;5.85;;;20.70;99.90;;;;;;5045985;28;20131;-83
2022/08/24 06:30:49;;;;;;;13.98;8.40;;;21.70;99.90;;;;;;5055919;28;20037;-84
2022/08/24 06:33:14;;;;;;;14.50;7.07;;;23.50;99.90;;;;;;5054354;28;20118;-83
2022/08/24 06:35:40;;;;;;;9.32;6.28;;;25.20;99.90;;;;;;5053090;28;20048;-83
2022/08/24 06:38:06;;;;;;;11.43;6.72;;;26.90;99.90;;;;;;5034499;28;20472;-83
2022/08/24 06:40:32;;;;;;;7.85;5.53;;;28.20;99.90;;;;;;5055662;28;20041;-84
2022/08/24 06:43:02;;;;;;;5.80;3.95;;;29.40;99.90;;;;;;5022943;28;20033;-82
2022/08/24 06:45:29;;;;;;;7.65;4.40;;;30.50;98.20;;;;;;5067968;28;20364;-82
2022/08/24 06:47:54;;;;;;;6.50;4.20;;;31.30;95.90;;;;;;5036529;28;20045;-83
2022/08/24 06:50:20;;;;;;;6.40;4.00;;;32.00;95.10;;;;;;5055154;28;20392;-82
2022/08/24 06:52:46;;;;;;;7.20;3.53;;;32.60;93.70;;;;;;5055947;28;20144;-82
2022/08/24 06:55:12;;;;;;;9.77;3.63;;;33.10;92.40;;;;;;5027940;28;20383;-82
2022/08/24 06:57:37;;;;;;;7.28;3.45;;;33.60;91.60;;;;;;5043985;28;20048;-82
2022/08/24 07:00:05;;;;;;;6.75;3.47;;;33.70;90.90;;;;;;5038868;28;20120;-82
2022/08/24 07:02:30;;;;;;;6.28;3.75;;;33.90;90.10;;;;;;5053155;28;20121;-82
2022/08/24 07:04:56;;;;;;;6.57;3.40;;;34.10;90.10;;;;;;5046445;28;20127;-82
2022/08/24 07:07:22;;;;;;;5.68;3.45;;;34.50;89.20;;;;;;5037365;28;20120;-82
2022/08/24 07:09:48;;;;;;;4.88;3.03;;;34.50;86.40;;;;;;5046982;28;20048;-83
2022/08/24 07:12:13;;;;;;;5.25;3.50;;;35.00;87.90;;;;;;5035172;28;20056;-82
2022/08/24 07:14:39;;;;;;;6.60;3.28;;;35.10;86.40;;;;;;5043716;28;20090;-80
2022/08/24 07:17:05;;;;;;;6.65;3.35;;;35.20;84.70;;;;;;5050801;28;20119;-80
2022/08/24 07:19:30;;;;;;;4.82;3.13;;;35.20;85.30;;;;;;5020556;28;20407;-80
2022/08/24 07:21:57;;;;;;;5.78;3.20;;;35.60;84.30;;;;;;5055962;28;20040;-80
2022/08/24 07:24:24;;;;;;;6.35;3.33;;;36.10;81.70;;;;;;5047234;28;20064;-80
2022/08/24 07:26:51;;;;;;;5.28;2.40;;;35.70;83.50;;;;;;5044739;28;20386;-80
2022/08/24 07:29:18;;;;;;;6.07;3.67;;;36.50;81.60;;;;;;5024836;28;20052;-80
2022/08/24 07:31:44;;;;;;;4.90;2.97;;;35.80;81.20;;;;;;5054819;28;20045;-82
2022/08/24 07:34:11;;;;;;;6.38;2.83;;;36.40;80.40;;;;;;5054717;28;20040;-83
2022/08/24 07:36:39;;;;;;;3.90;2.50;;;36.70;80.00;;;;;;5052876;28;20048;-83
2022/08/24 07:39:06;;;;;;;4.10;2.65;;;36.90;79.80;;;;;;5038549;28;20056;-83
2022/08/24 07:41:38;;;;;;;5.47;2.67;;;37.30;80.10;;;;;;5053409;28;20043;-83
2022/08/24 07:44:04;;;;;;;6.10;2.97;;;37.70;78.50;;;;;;5052539;28;20049;-83
2022/08/24 07:46:30;;;;;;;7.75;3.17;;;37.60;78.30;;;;;;5037419;28;20051;-83
2022/08/24 07:48:56;;;;;;;5.20;2.42;;;37.10;77.90;;;;;;5072052;28;20051;-80
2022/08/24 07:51:22;;;;;;;5.25;2.15;;;37.80;77.20;;;;;;5053495;28;20048;-80
2022/08/24 07:53:47;;;;;;;3.85;2.60;;;38.00;76.90;;;;;;5052168;28;20049;-80
2022/08/24 07:56:13;;;;;;;4.22;2.38;;;38.00;76.30;;;;;;5034771;28;20056;-80
2022/08/24 07:58:39;;;;;;;5.20;2.50;;;38.20;75.40;;;;;;5049917;28;20045;-80
2022/08/24 08:01:07;;;;;;;7.03;2.40;;;38.50;75.50;;;;;;5053851;28;20049;-80
2022/08/24 08:03:33;;;;;;;4.85;2.25;;;37.10;76.90;;;;;;5043650;28;20052;-80
2022/08/24 08:06:06;;;;;;;3.83;2.10;;;37.80;75.60;;;;;;5048132;28;20049;-80
2022/08/24 08:08:35;;;;;;;2.42;1.88;;;38.00;75.10;;;;;;5049643;28;20040;-80
2022/08/24 08:11:02;;;;;;;3.13;1.85;;;38.40;73.40;;;;;;5035388;28;20533;-80
2022/08/24 08:13:29;;;;;;;2.22;1.27;;;38.20;74.10;;;;;;5052490;28;20043;-80
2022/08/24 08:15:55;;;;;;;2.33;1.58;;;38.00;74.70;;;;;;5036110;28;20040;-80
2022/08/24 08:18:21;;;;;;;1.27;1.17;;;38.60;74.30;;;;;;5051744;28;20045;-80
2022/08/24 08:20:47;;;;;;;1.63;0.93;;;38.70;73.90;;;;;;5036189;28;20040;-83
2022/08/24 08:26:00;;;;;;;2.88;1.65;;;39.40;73.70;;;;;;5043002;28;20056;-83
2022/08/24 08:28:31;;;;;;;2.53;1.20;;;40.00;71.90;;;;;;5029991;28;20069;-84
2022/08/24 08:30:58;;;;;;;2.78;1.23;;;39.80;72.10;;;;;;5045895;28;20045;-84
2022/08/24 08:33:24;;;;;;;2.38;1.60;;;40.10;71.20;;;;;;5018004;28;20041;-84
2022/08/24 08:35:55;;;;;;;4.63;1.65;;;39.50;71.50;;;;;;5051572;28;20040;-84
2022/08/24 08:38:21;;;;;;;3.38;1.65;;;39.80;71.60;;;;;;5052515;28;20483;-84
2022/08/24 08:41:07;;;;;;;3.60;2.15;;;39.70;71.20;;;;;;5034962;28;20090;-84
2022/08/24 08:43:42;;;;;;;2.28;1.55;;;39.10;70.40;;;;;;5052404;28;20045;-84
2022/08/24 08:47:00;;;;;;;2.80;1.80;;;39.20;71.10;;;;;;5048738;28;20037;-84
2022/08/24 08:49:57;;;;;;;2.40;1.60;;;39.00;71.00;;;;;;4981462;28;20118;-84
2022/08/24 08:52:35;;;;;;;3.28;1.42;;;39.30;71.20;;;;;;5042039;28;20060;-84
2022/08/24 08:55:13;;;;;;;1.88;1.67;;;39.30;70.70;;;;;;5043495;28;20509;-83
2022/08/24 08:57:42;;;;;;;1.90;1.45;;;39.40;69.90;;;;;;5072858;28;20097;-84
2022/08/24 09:00:17;;;;;;;3.53;2.05;;;39.70;71.00;;;;;;5072894;28;20040;-84
2022/08/24 09:03:17;;;;;;;3.13;1.95;;;39.80;69.60;;;;;;5054988;28;20087;-84
2022/08/24 09:06:10;;;;;;;2.03;1.30;;;40.20;69.10;;;;;;5057775;28;20040;-84
2022/08/24 09:08:56;;;;;;;2.30;1.50;;;40.20;69.70;;;;;;5072642;28;20067;-84
2022/08/24 09:11:41;;;;;;;4.65;1.80;;;40.70;68.70;;;;;;5056225;28;20037;-81
2022/08/24 09:14:28;;;;;;;3.45;1.80;;;40.30;69.20;;;;;;5061021;28;20028;-81
2022/08/24 09:17:19;;;;;;;4.00;1.65;;;40.50;69.40;;;;;;5053982;28;20055;-81
2022/08/24 09:20:10;;;;;;;3.47;1.60;;;40.80;68.50;;;;;;5016623;28;20049;-81
2022/08/24 09:22:47;;;;;;;2.40;1.65;;;40.50;68.70;;;;;;5019280;28;20123;-81
2022/08/24 09:25:42;;;;;;;6.82;1.90;;;40.50;68.00;;;;;;5051487;28;20145;-81
2022/08/24 09:28:33;;;;;;;4.70;1.60;;;40.20;69.30;;;;;;5030661;28;20048;-81
2022/08/24 09:31:25;;;;;;;2.17;1.73;;;40.40;67.70;;;;;;5072756;28;20161;-81
2022/08/24 09:34:06;;;;;;;3.78;1.80;;;40.40;68.80;;;;;;5060209;28;20048;-81
2022/08/24 09:37:00;;;;;;;3.13;1.73;;;40.70;68.10;;;;;;5058719;28;20125;-81
2022/08/24 09:39:35;;;;;;;2.70;1.60;;;40.50;68.50;;;;;;5052445;28;20047;-81
2022/08/24 09:42:42;;;;;;;4.13;1.88;;;40.80;67.80;;;;;;5037380;28;20041;-81
2022/08/24 09:45:43;;;;;;;2.60;1.50;;;41.20;67.90;;;;;;5008433;28;20085;-84
2022/08/24 09:48:23;;;;;;;3.35;1.73;;;41.00;68.70;;;;;;4982434;28;20120;-84
2022/08/24 09:51:26;;;;;;;3.35;2.03;;;41.00;66.20;;;;;;5040997;28;20070;-84
2022/08/24 09:54:22;;;;;;;2.67;1.67;;;40.80;66.50;;;;;;5059482;28;20057;-84
2022/08/24 09:57:00;;;;;;;2.95;1.75;;;41.00;66.20;;;;;;5034802;28;20075;-84
2022/08/24 10:00:14;;;;;;;3.90;1.70;;;40.90;66.90;;;;;;5042462;28;20034;-84
2022/08/24 10:02:54;;;;;;;2.40;1.60;;;39.70;67.70;;;;;;5044207;28;20037;-84
2022/08/24 10:05:46;;;;;;;2.80;1.67;;;40.00;68.40;;;;;;5034500;28;20049;-84
2022/08/24 10:08:23;;;;;;;3.00;1.48;;;40.70;68.30;;;;;;5047973;28;20041;-84
2022/08/24 10:10:58;;;;;;;1.73;1.50;;;41.00;67.80;;;;;;5059403;28;20538;-85
2022/08/24 10:13:32;;;;;;;4.47;1.67;;;41.40;67.00;;;;;;5052446;28;20041;-85
2022/08/24 10:16:40;;;;;;;2.58;1.27;;;41.00;65.70;;;;;;5043456;28;20079;-85
2022/08/24 10:19:29;;;;;;;3.20;1.30;;;41.30;65.40;;;;;;5046796;28;20051;-81
2022/08/24 10:21:58;;;;;;;1.95;1.20;;;41.00;66.40;;;;;;5049331;28;20079;-81
2022/08/24 10:24:29;;;;;;;2.08;1.40;;;40.80;66.70;;;;;;5051698;28;20382;-81
2022/08/24 10:27:42;;;;;;;1.95;1.00;;;41.00;66.00;;;;;;5051064;28;20049;-81
2022/08/24 10:30:29;;;;;;;1.48;1.27;;;40.80;66.80;;;;;;5033813;28;20135;-82
2022/08/24 10:32:55;;;;;;;1.42;1.27;;;40.80;65.40;;;;;;5051859;28;20045;-81
2022/08/24 10:35:48;;;;;;;2.20;1.40;;;40.70;66.50;;;;;;5041487;28;20123;-85
2022/08/24 10:41:22;;;;;;;2.05;1.35;;;41.00;66.10;;;;;;5048314;28;20452;-85
2022/08/24 10:44:03;;;;;;;1.38;1.20;;;41.00;66.50;;;;;;5047782;28;20044;-85
2022/08/24 10:46:48;;;;;;;2.00;1.30;;;41.10;65.60;;;;;;5054947;28;20037;-85
2022/08/24 10:49:19;;;;;;;1.65;1.30;;;40.90;67.10;;;;;;5054812;28;20036;-85
2022/08/24 10:52:06;;;;;;;1.40;1.30;;;40.80;65.80;;;;;;5038465;28;20055;-82
2022/08/24 10:54:34;;;;;;;2.03;1.63;;;41.00;66.70;;;;;;5054842;28;20111;-82
2022/08/24 10:57:07;;;;;;;1.48;1.30;;;41.20;65.80;;;;;;5053910;28;20075;-82
2022/08/24 10:59:40;;;;;;;1.45;1.23;;;41.40;66.40;;;;;;5054708;28;20053;-82
2022/08/24 11:02:30;;;;;;;3.17;1.30;;;41.30;66.60;;;;;;5055021;28;20128;-82
2022/08/24 11:04:59;;;;;;;1.65;1.33;;;41.40;66.30;;;;;;5055163;28;20041;-82
2022/08/24 11:07:26;;;;;;;1.67;1.20;;;41.00;65.00;;;;;;5053923;28;20049;-85
2022/08/24 11:10:01;;;;;;;2.47;1.40;;;40.60;66.40;;;;;;5055474;28;20048;-85
2022/08/24 11:12:36;;;;;;;1.95;1.60;;;40.70;66.40;;;;;;5073166;28;20045;-85
2022/08/24 11:15:17;;;;;;;1.80;1.00;;;40.50;66.70;;;;;;5071879;28;20041;-85
2022/08/24 11:18:12;;;;;;;1.63;1.13;;;41.00;65.90;;;;;;5050519;28;20044;-85
2022/08/24 11:20:45;;;;;;;4.00;1.67;;;40.70;66.50;;;;;;5021016;28;20060;-85
2022/08/24 11:23:21;;;;;;;2.53;1.35;;;40.60;67.10;;;;;;5056952;28;20042;-85
2022/08/24 11:25:58;;;;;;;2.38;1.50;;;40.20;66.70;;;;;;5034497;28;20042;-81
2022/08/24 11:28:40;;;;;;;1.88;1.40;;;40.20;66.10;;;;;;5030991;28;20045;-82
2022/08/24 11:31:30;;;;;;;2.80;1.30;;;40.40;67.60;;;;;;5052921;28;20075;-81
2022/08/24 11:34:28;;;;;;;2.05;1.50;;;40.80;66.70;;;;;;5053427;28;20062;-82
2022/08/24 11:36:54;;;;;;;2.55;1.05;;;41.00;66.70;;;;;;5054446;28;20098;-81
2022/08/24 11:39:25;;;;;;;1.80;1.10;;;40.40;66.50;;;;;;5037638;28;20037;-81
2022/08/24 11:42:00;;;;;;;3.17;1.48;;;40.30;66.60;;;;;;5052056;28;20036;-82
2022/08/24 11:44:36;;;;;;;1.30;1.17;;;40.00;67.20;;;;;;5067846;28;20044;-82
2022/08/24 11:47:36;;;;;;;2.97;1.48;;;40.00;67.30;;;;;;5057402;28;20447;-82
2022/08/24 11:50:17;;;;;;;4.53;1.30;;;39.70;67.10;;;;;;5036734;28;20045;-82
2022/08/24 11:52:54;;;;;;;1.23;1.10;;;39.60;68.40;;;;;;5041798;28;20037;-82
2022/08/24 11:55:46;;;;;;;1.92;1.17;;;39.60;68.80;;;;;;5065760;28;20036;-82
2022/08/24 11:58:31;;;;;;;3.25;1.15;;;39.40;68.80;;;;;;5073887;28;20037;-82
2022/08/24 12:01:07;;;;;;;1.60;1.30;;;39.20;68.40;;;;;;5058038;28;20044;-81
2022/08/24 12:04:05;;;;;;;0.82;0.82;;;38.50;69.00;;;;;;5057802;28;20041;-82
2022/08/24 12:06:52;;;;;;;2.45;1.30;;;38.50;70.50;;;;;;5072239;28;20044;-82
2022/08/24 12:09:39;;;;;;;1.13;0.85;;;38.60;70.00;;;;;;5054422;28;20049;-81
2022/08/24 12:12:11;;;;;;;1.75;1.17;;;38.70;69.40;;;;;;5052937;28;20093;-81
2022/08/24 12:14:54;;;;;;;0.90;0.90;;;38.40;68.80;;;;;;5054187;28;20160;-85
2022/08/24 12:17:32;;;;;;;1.85;0.90;;;37.90;70.20;;;;;;5037783;28;20048;-85
2022/08/24 12:20:21;;;;;;;2.55;1.40;;;38.00;69.30;;;;;;5036879;28;20471;-85
2022/08/24 12:22:48;;;;;;;1.38;1.10;;;38.00;70.00;;;;;;5049764;28;20043;-84
2022/08/24 12:28:00;;;;;;;1.08;0.95;;;37.90;68.90;;;;;;5056808;28;20028;-85
2022/08/24 12:30:26;;;;;;;1.35;0.82;;;37.90;71.10;;;;;;5073024;28;20075;-82
2022/08/24 12:33:04;;;;;;;1.58;0.70;;;37.70;69.30;;;;;;5058665;28;20044;-81
2022/08/24 12:35:38;;;;;;;1.40;0.80;;;37.50;69.30;;;;;;5053178;28;20098;-81
2022/08/24 12:38:20;;;;;;;1.77;1.00;;;37.70;69.70;;;;;;5063040;28;20478;-81
2022/08/24 12:41:04;;;;;;;1.08;0.93;;;38.00;70.70;;;;;;5073213;28;20048;-81
2022/08/24 12:43:48;;;;;;;1.27;1.05;;;38.00;69.90;;;;;;5043786;28;20072;-81
2022/08/24 12:46:16;;;;;;;1.75;1.17;;;37.80;69.20;;;;;;5042628;28;20117;-82
2022/08/24 12:48:47;;;;;;;1.00;0.90;;;37.50;70.90;;;;;;5005607;28;20577;-81
2022/08/24 12:51:51;;;;;;;3.60;1.50;;;37.60;70.90;;;;;;5054062;28;20052;-82
2022/08/24 12:54:26;;;;;;;1.65;1.10;;;37.20;69.50;;;;;;5083626;28;20498;-82
2022/08/24 12:57:24;;;;;;;1.88;1.02;;;36.90;71.30;;;;;;5052462;28;20360;-81
2022/08/24 12:59:57;;;;;;;1.40;1.02;;;37.00;72.40;;;;;;5055190;28;20048;-81
2022/08/24 13:02:25;;;;;;;1.10;0.85;;;36.80;71.90;;;;;;5042395;28;20373;-81
2022/08/24 13:04:52;;;;;;;0.73;0.73;;;35.90;72.90;;;;;;5061126;28;20060;-82
2022/08/24 13:07:18;;;;;;;0.90;0.80;;;35.30;73.50;;;;;;5036363;28;20041;-81
2022/08/24 13:09:52;;;;;;;2.67;1.45;;;34.90;74.50;;;;;;5069870;28;20033;-81
2022/08/24 13:12:45;;;;;;;1.48;1.23;;;34.80;74.80;;;;;;5054871;28;20045;-81
2022/08/24 13:15:24;;;;;;;0.75;0.75;;;34.90;75.50;;;;;;5054417;28;20036;-81
2022/08/24 13:18:08;;;;;;;0.70;0.70;;;35.20;74.80;;;;;;5036059;28;20485;-81
2022/08/24 13:20:33;;;;;;;0.75;0.60;;;35.10;74.00;;;;;;5052893;28;20490;-84
2022/08/24 13:23:24;;;;;;;1.20;0.80;;;35.10;72.80;;;;;;5052255;28;20041;-85